Time;durP1;ratioP1;P1;durP2;ratioP2;P2;SDS_P1;SDS_P2;PMS_P1;PMS_P2;Temp;Humidity;BMP_temperature;BMP_pressure;BME280_temperature;BME280_humidity;BME280_pressure;Samples;Min_cycle;Max_cycle;Signal;HPM_P1;HPM_P2
2021/09/14 00:02:15;;;;;;;2.90;2.35;;;;;;;;;;5068641;28;20501;-59
2021/09/14 00:04:41;;;;;;;3.10;2.30;;;;;;;;;;5068562;28;20036;-59
2021/09/14 00:07:06;;;;;;;2.70;2.08;;;;;;;;;;5068063;28;20036;-59
2021/09/14 00:09:32;;;;;;;4.40;2.90;;;;;;;;;;5068464;28;20067;-59
2021/09/14 00:11:58;;;;;;;6.78;2.65;;;;;;;;;;5067887;28;20330;-59
2021/09/14 00:14:24;;;;;;;3.45;2.42;;;;;;;;;;5066213;28;20032;-58
2021/09/14 00:16:49;;;;;;;3.38;2.47;;;;;;;;;;5068352;28;20029;-59
2021/09/14 00:19:16;;;;;;;2.53;1.88;;;;;;;;;;5067276;28;20111;-59
2021/09/14 00:21:41;;;;;;;3.00;2.13;;;;;;;;;;5068380;28;20412;-58
2021/09/14 00:24:07;;;;;;;4.38;2.80;;;;;;;;;;5067761;28;20041;-58
2021/09/14 00:26:32;;;;;;;2.88;2.20;;;;;;;;;;5068322;28;20042;-58
2021/09/14 00:28:58;;;;;;;3.83;2.85;;;;;;;;;;5068240;28;20077;-58
2021/09/14 00:31:25;;;;;;;4.28;2.47;;;;;;;;;;5067312;28;20082;-59
2021/09/14 00:33:50;;;;;;;3.85;2.35;;;;;;;;;;5063392;28;20033;-59
2021/09/14 00:36:16;;;;;;;2.78;2.03;;;;;;;;;;5067903;28;20107;-59
2021/09/14 00:38:41;;;;;;;3.45;2.50;;;;;;;;;;5068218;28;20036;-59
2021/09/14 00:41:06;;;;;;;3.35;2.30;;;;;;;;;;5067183;28;20060;-59
2021/09/14 00:43:32;;;;;;;4.00;2.78;;;;;;;;;;5066824;28;20114;-59
2021/09/14 00:45:57;;;;;;;6.28;2.83;;;;;;;;;;5067693;28;20032;-59
2021/09/14 00:48:23;;;;;;;3.45;2.70;;;;;;;;;;5067602;28;20032;-59
2021/09/14 00:50:48;;;;;;;5.60;2.55;;;;;;;;;;5066572;28;20506;-58
2021/09/14 00:53:14;;;;;;;3.33;2.42;;;;;;;;;;5067990;28;20047;-59
2021/09/14 00:55:40;;;;;;;2.67;2.15;;;;;;;;;;5067450;28;20114;-59
2021/09/14 00:58:05;;;;;;;9.60;2.40;;;;;;;;;;5067920;28;20125;-59
2021/09/14 01:00:31;;;;;;;3.53;2.78;;;;;;;;;;5067881;28;20572;-59
2021/09/14 01:02:56;;;;;;;3.28;2.20;;;;;;;;;;5069400;28;20807;-58
2021/09/14 01:05:22;;;;;;;3.60;2.70;;;;;;;;;;5071068;28;20043;-58
2021/09/14 01:07:48;;;;;;;3.10;2.13;;;;;;;;;;5071652;28;20024;-59
2021/09/14 01:10:14;;;;;;;3.05;2.10;;;;;;;;;;5070551;28;20330;-59
2021/09/14 01:12:40;;;;;;;3.42;2.72;;;;;;;;;;5070503;28;20032;-58
2021/09/14 01:15:07;;;;;;;3.03;2.38;;;;;;;;;;5069250;28;20078;-59
2021/09/14 01:17:32;;;;;;;3.75;2.92;;;;;;;;;;5070616;28;20046;-58
2021/09/14 01:19:58;;;;;;;4.05;2.45;;;;;;;;;;5071262;28;20103;-59
2021/09/14 01:22:28;;;;;;;4.53;2.78;;;;;;;;;;5071313;28;20032;-58
2021/09/14 01:24:53;;;;;;;2.83;2.13;;;;;;;;;;5070677;28;20051;-58
2021/09/14 01:27:19;;;;;;;4.40;2.42;;;;;;;;;;5071499;28;20032;-58
2021/09/14 01:32:28;;;;;;;3.80;2.72;;;;;;;;;;5069721;28;20373;-58
2021/09/14 01:34:54;;;;;;;2.75;1.88;;;;;;;;;;5071221;28;20035;-58
2021/09/14 01:37:19;;;;;;;4.05;2.80;;;;;;;;;;5070460;28;20088;-59
2021/09/14 01:39:45;;;;;;;2.63;1.98;;;;;;;;;;5070470;28;20050;-59
2021/09/14 01:42:10;;;;;;;3.22;2.45;;;;;;;;;;5069628;28;20789;-59
2021/09/14 01:44:36;;;;;;;4.47;2.70;;;;;;;;;;5068339;28;20107;-59
2021/09/14 01:47:01;;;;;;;3.60;2.53;;;;;;;;;;5068613;28;20564;-59
2021/09/14 01:49:26;;;;;;;3.10;2.42;;;;;;;;;;5070052;28;20063;-59
2021/09/14 01:51:52;;;;;;;3.58;2.35;;;;;;;;;;5068966;28;20497;-60
2021/09/14 01:54:17;;;;;;;5.28;3.15;;;;;;;;;;5070660;28;20042;-60
2021/09/14 01:56:43;;;;;;;3.38;2.70;;;;;;;;;;5070577;28;20303;-59
2021/09/14 01:59:08;;;;;;;3.53;2.03;;;;;;;;;;5070769;28;20020;-59
2021/09/14 02:01:37;;;;;;;2.33;1.63;;;;;;;;;;5070832;28;20035;-59
2021/09/14 02:04:09;;;;;;;4.45;3.13;;;;;;;;;;5070289;28;20020;-58
2021/09/14 03:00:25;;;;;;;2.90;2.17;;;;;;;;;;5069315;28;20029;-58
2021/09/14 03:02:51;;;;;;;3.45;2.58;;;;;;;;;;5069144;28;20055;-58
2021/09/14 03:05:16;;;;;;;4.13;2.75;;;;;;;;;;5068436;28;20028;-58
2021/09/14 03:07:42;;;;;;;4.07;2.80;;;;;;;;;;5069185;28;20229;-58
2021/09/14 03:10:07;;;;;;;3.50;2.42;;;;;;;;;;5069258;28;20876;-58
2021/09/14 03:12:33;;;;;;;3.15;2.15;;;;;;;;;;5069564;28;20043;-57
2021/09/14 03:14:58;;;;;;;3.58;2.60;;;;;;;;;;5069034;28;20123;-58
2021/09/14 03:17:24;;;;;;;2.80;2.22;;;;;;;;;;5068824;28;20021;-59
2021/09/14 03:19:49;;;;;;;4.55;2.65;;;;;;;;;;5068132;28;20366;-58
2021/09/14 03:22:15;;;;;;;8.00;2.70;;;;;;;;;;5067834;28;20029;-58
2021/09/14 03:24:40;;;;;;;3.72;2.78;;;;;;;;;;5068436;28;20036;-60
2021/09/14 03:27:05;;;;;;;4.72;2.83;;;;;;;;;;5068784;28;20020;-58
2021/09/14 03:29:31;;;;;;;4.22;2.83;;;;;;;;;;5068129;28;20037;-58
2021/09/14 03:31:56;;;;;;;3.47;2.53;;;;;;;;;;5068144;28;20051;-60
2021/09/14 03:34:22;;;;;;;4.57;3.05;;;;;;;;;;5065879;28;20048;-58
2021/09/14 03:36:47;;;;;;;3.75;2.13;;;;;;;;;;5067737;28;20381;-58
2021/09/14 03:39:12;;;;;;;3.58;2.58;;;;;;;;;;5065808;28;20044;-58
2021/09/14 03:41:38;;;;;;;3.28;2.35;;;;;;;;;;5064009;28;20468;-58
2021/09/14 03:44:04;;;;;;;4.82;2.65;;;;;;;;;;5064170;28;20033;-58
2021/09/14 03:46:29;;;;;;;3.65;2.50;;;;;;;;;;5067405;28;20039;-58
2021/09/14 03:48:54;;;;;;;3.92;2.63;;;;;;;;;;5068133;28;20082;-58
2021/09/14 03:51:20;;;;;;;4.35;2.42;;;;;;;;;;5068784;28;20037;-58
2021/09/14 03:53:45;;;;;;;4.13;2.30;;;;;;;;;;5068629;28;20047;-58
2021/09/14 03:56:10;;;;;;;3.40;2.50;;;;;;;;;;5067183;28;20128;-58
2021/09/14 03:58:36;;;;;;;5.95;2.72;;;;;;;;;;5067311;28;20042;-58
2021/09/14 04:01:01;;;;;;;3.80;2.72;;;;;;;;;;5068478;28;20036;-58
2021/09/14 04:06:09;;;;;;;3.50;2.38;;;;;;;;;;5067035;28;20017;-58
2021/09/14 04:08:53;;;;;;;4.20;3.15;;;;;;;;;;5068555;28;20461;-58
2021/09/14 04:11:21;;;;;;;3.33;2.42;;;;;;;;;;5068954;28;20052;-58
2021/09/14 04:13:48;;;;;;;3.20;2.25;;;;;;;;;;5066737;28;20032;-58
2021/09/14 04:16:14;;;;;;;4.03;3.15;;;;;;;;;;5068102;28;20141;-58
2021/09/14 04:18:39;;;;;;;2.92;2.22;;;;;;;;;;5067023;28;20071;-59
2021/09/14 04:21:05;;;;;;;5.10;2.95;;;;;;;;;;5061677;28;20107;-59
2021/09/14 04:23:30;;;;;;;3.28;2.35;;;;;;;;;;5067940;28;20047;-59
2021/09/14 04:25:56;;;;;;;3.85;2.92;;;;;;;;;;5068655;28;20118;-59
2021/09/14 04:28:21;;;;;;;4.28;2.70;;;;;;;;;;5067329;28;20040;-59
2021/09/14 04:30:47;;;;;;;3.13;2.28;;;;;;;;;;5066569;28;20066;-58
2021/09/14 04:33:12;;;;;;;3.17;2.50;;;;;;;;;;5068208;28;20504;-58
2021/09/14 04:35:37;;;;;;;3.78;2.75;;;;;;;;;;5067501;28;20033;-58
2021/09/14 04:38:03;;;;;;;3.78;2.40;;;;;;;;;;5071751;28;20038;-59
2021/09/14 04:40:30;;;;;;;4.68;2.35;;;;;;;;;;5071059;28;20031;-58
2021/09/14 04:42:55;;;;;;;4.40;3.05;;;;;;;;;;5070182;28;20035;-58
2021/09/14 04:45:21;;;;;;;5.00;3.42;;;;;;;;;;5071430;28;20036;-58
2021/09/14 04:47:46;;;;;;;4.38;2.85;;;;;;;;;;5071831;28;20036;-58
2021/09/14 04:50:12;;;;;;;3.22;2.33;;;;;;;;;;5067533;28;20036;-58
2021/09/14 04:52:38;;;;;;;4.20;2.70;;;;;;;;;;5071694;28;20048;-58
2021/09/14 04:55:04;;;;;;;3.83;2.53;;;;;;;;;;5070758;28;20086;-58
2021/09/14 04:57:30;;;;;;;3.08;2.00;;;;;;;;;;5068411;28;20095;-58
2021/09/14 04:59:55;;;;;;;3.60;2.65;;;;;;;;;;5070027;28;20039;-58
2021/09/14 05:02:21;;;;;;;3.70;2.90;;;;;;;;;;5068501;28;20048;-58
2021/09/14 05:04:46;;;;;;;5.53;3.38;;;;;;;;;;5068647;28;20838;-58
2021/09/14 05:07:12;;;;;;;3.40;2.53;;;;;;;;;;5068463;28;20036;-58
2021/09/14 05:09:37;;;;;;;3.08;2.17;;;;;;;;;;5067952;28;20056;-58
2021/09/14 05:12:03;;;;;;;3.42;2.67;;;;;;;;;;5066975;28;20028;-58
2021/09/14 05:14:28;;;;;;;10.77;2.63;;;;;;;;;;5067803;28;20038;-58
2021/09/14 05:16:53;;;;;;;4.07;2.95;;;;;;;;;;5067591;28;20037;-58
2021/09/14 05:19:30;;;;;;;3.55;2.42;;;;;;;;;;5068397;28;20075;-58
2021/09/14 05:21:58;;;;;;;3.17;2.20;;;;;;;;;;5067123;28;20389;-59
2021/09/14 05:24:23;;;;;;;3.92;2.53;;;;;;;;;;5066652;28;20059;-59
2021/09/14 05:26:49;;;;;;;6.75;3.13;;;;;;;;;;5066966;28;20409;-59
2021/09/14 05:29:14;;;;;;;3.92;2.88;;;;;;;;;;5069852;28;20664;-59
2021/09/14 05:31:39;;;;;;;4.13;2.85;;;;;;;;;;5066715;28;20098;-58
2021/09/14 05:34:05;;;;;;;4.20;2.55;;;;;;;;;;5066666;28;20396;-58
2021/09/14 05:36:31;;;;;;;3.88;2.85;;;;;;;;;;5066469;28;20484;-58
2021/09/14 05:38:56;;;;;;;4.45;2.90;;;;;;;;;;5066358;28;20708;-58
2021/09/14 05:41:21;;;;;;;5.13;2.90;;;;;;;;;;5066290;28;20032;-58
2021/09/14 05:43:47;;;;;;;4.28;3.22;;;;;;;;;;5067804;28;20052;-58
2021/09/14 05:46:12;;;;;;;3.25;2.58;;;;;;;;;;5063575;28;20033;-59
2021/09/14 05:48:37;;;;;;;3.53;2.65;;;;;;;;;;5068053;28;20025;-59
2021/09/14 05:51:03;;;;;;;3.92;3.00;;;;;;;;;;5066098;28;20036;-59
2021/09/14 05:53:28;;;;;;;4.40;2.95;;;;;;;;;;5067832;28;20024;-58
2021/09/14 05:55:54;;;;;;;4.95;2.95;;;;;;;;;;5070002;28;20042;-58
2021/09/14 05:58:19;;;;;;;4.38;2.90;;;;;;;;;;5069003;28;20051;-59
2021/09/14 06:00:44;;;;;;;3.20;2.17;;;;;;;;;;5070914;28;20040;-58
2021/09/14 06:03:10;;;;;;;5.00;2.60;;;;;;;;;;5069734;28;20036;-58
2021/09/14 06:05:35;;;;;;;3.90;2.95;;;;;;;;;;5068606;28;20023;-59
2021/09/14 06:08:00;;;;;;;4.70;3.03;;;;;;;;;;5068648;28;20028;-59
2021/09/14 06:10:26;;;;;;;3.60;2.92;;;;;;;;;;5069374;28;20032;-58
2021/09/14 06:12:52;;;;;;;3.15;2.55;;;;;;;;;;5069424;28;20123;-58
2021/09/14 06:15:17;;;;;;;3.35;2.53;;;;;;;;;;5067986;28;20067;-59
2021/09/14 06:17:43;;;;;;;3.15;2.40;;;;;;;;;;5070477;28;20035;-58
2021/09/14 06:20:10;;;;;;;5.53;2.65;;;;;;;;;;5069390;28;20059;-58
2021/09/14 06:22:35;;;;;;;3.42;2.63;;;;;;;;;;5070317;28;20077;-58
2021/09/14 06:25:01;;;;;;;3.60;2.50;;;;;;;;;;5070508;28;20029;-58
2021/09/14 06:27:26;;;;;;;3.47;2.58;;;;;;;;;;5069891;28;20665;-58
2021/09/14 06:29:52;;;;;;;3.78;2.63;;;;;;;;;;5065936;28;20040;-58
2021/09/14 06:32:17;;;;;;;4.57;2.97;;;;;;;;;;5067936;28;20024;-58
2021/09/14 06:34:43;;;;;;;4.60;2.65;;;;;;;;;;5068181;28;20057;-59
2021/09/14 06:37:08;;;;;;;2.50;1.80;;;;;;;;;;5065515;28;20031;-59
2021/09/14 06:39:37;;;;;;;4.40;3.10;;;;;;;;;;5067503;28;20477;-59
2021/09/14 06:42:04;;;;;;;4.10;2.63;;;;;;;;;;5068591;28;20028;-59
2021/09/14 06:44:29;;;;;;;3.83;3.22;;;;;;;;;;5068970;28;20039;-59
2021/09/14 06:46:55;;;;;;;3.85;2.80;;;;;;;;;;5069043;28;20058;-59
2021/09/14 06:49:21;;;;;;;3.08;2.47;;;;;;;;;;5067246;28;20033;-59
2021/09/14 06:51:46;;;;;;;4.75;3.17;;;;;;;;;;5068504;28;20366;-59
2021/09/14 06:54:12;;;;;;;3.85;2.70;;;;;;;;;;5068176;28;20490;-58
2021/09/14 06:56:37;;;;;;;5.18;3.28;;;;;;;;;;5067475;28;20179;-58
2021/09/14 06:59:03;;;;;;;4.65;3.20;;;;;;;;;;5066009;28;20155;-59
2021/09/14 07:01:29;;;;;;;3.47;2.60;;;;;;;;;;5067928;28;20054;-58
2021/09/14 07:03:54;;;;;;;15.88;2.78;;;;;;;;;;5069033;28;20100;-59
2021/09/14 07:06:20;;;;;;;3.60;2.78;;;;;;;;;;5067336;28;20355;-58
2021/09/14 07:08:46;;;;;;;3.95;2.47;;;;;;;;;;5067414;28;20103;-58
2021/09/14 07:11:12;;;;;;;3.78;2.58;;;;;;;;;;5067760;28;20122;-58
2021/09/14 07:13:38;;;;;;;3.22;2.33;;;;;;;;;;5066643;28;20768;-61
2021/09/14 07:16:04;;;;;;;3.45;2.60;;;;;;;;;;5068212;28;20109;-58
2021/09/14 07:18:29;;;;;;;4.72;2.40;;;;;;;;;;5065512;28;20051;-58
2021/09/14 07:20:55;;;;;;;3.85;2.38;;;;;;;;;;5069078;28;20032;-58
2021/09/14 07:23:21;;;;;;;4.35;3.03;;;;;;;;;;5067610;28;20150;-59
2021/09/14 07:25:47;;;;;;;3.47;2.28;;;;;;;;;;5068729;28;20532;-58
2021/09/14 07:28:12;;;;;;;3.33;2.63;;;;;;;;;;5069028;28;20044;-59
2021/09/14 07:30:38;;;;;;;3.45;2.55;;;;;;;;;;5068220;28;20078;-59
2021/09/14 07:33:04;;;;;;;4.18;3.05;;;;;;;;;;5068473;28;20333;-59
2021/09/14 07:35:30;;;;;;;3.38;2.60;;;;;;;;;;5068805;28;20032;-59
2021/09/14 07:37:56;;;;;;;3.88;2.90;;;;;;;;;;5068960;28;20515;-59
2021/09/14 07:40:22;;;;;;;4.75;3.28;;;;;;;;;;5068611;28;20032;-58
2021/09/14 07:42:47;;;;;;;4.20;3.08;;;;;;;;;;5068715;28;20058;-58
2021/09/14 07:45:13;;;;;;;4.35;3.15;;;;;;;;;;5067638;28;20051;-58
2021/09/14 07:47:39;;;;;;;3.90;3.28;;;;;;;;;;5068321;28;20033;-58
2021/09/14 07:50:05;;;;;;;3.80;3.03;;;;;;;;;;5068770;28;20110;-59
2021/09/14 07:52:30;;;;;;;3.88;2.83;;;;;;;;;;5068511;28;20116;-59
2021/09/14 07:54:56;;;;;;;3.42;3.03;;;;;;;;;;5068052;28;20104;-59
2021/09/14 07:57:21;;;;;;;4.55;3.60;;;;;;;;;;5068049;28;20039;-59
2021/09/14 07:59:46;;;;;;;3.70;3.28;;;;;;;;;;5066389;28;20108;-59
2021/09/14 08:02:12;;;;;;;4.88;3.17;;;;;;;;;;5067565;28;20064;-59
2021/09/14 08:04:37;;;;;;;3.25;2.88;;;;;;;;;;5069208;28;20029;-59
2021/09/14 08:07:03;;;;;;;3.55;3.13;;;;;;;;;;5060281;28;20028;-59
2021/09/14 08:09:30;;;;;;;3.67;3.08;;;;;;;;;;5068062;28;20032;-59
2021/09/14 08:11:59;;;;;;;4.00;2.65;;;;;;;;;;5071425;28;20574;-59
2021/09/14 08:14:25;;;;;;;3.40;2.92;;;;;;;;;;5070497;28;20048;-60
2021/09/14 08:16:50;;;;;;;2.90;2.55;;;;;;;;;;5072335;28;20047;-59
2021/09/14 08:19:16;;;;;;;3.80;3.22;;;;;;;;;;5072444;28;20445;-59
2021/09/14 08:21:42;;;;;;;3.45;2.70;;;;;;;;;;5073399;28;20408;-59
2021/09/14 08:24:08;;;;;;;3.40;3.10;;;;;;;;;;5071839;28;20024;-59
2021/09/14 08:26:34;;;;;;;3.75;2.80;;;;;;;;;;5071843;28;20032;-59
2021/09/14 08:29:00;;;;;;;3.05;2.60;;;;;;;;;;5072814;28;20032;-59
2021/09/14 08:31:25;;;;;;;3.72;3.22;;;;;;;;;;5071535;28;20047;-59
2021/09/14 08:33:51;;;;;;;3.50;2.85;;;;;;;;;;5069617;28;20036;-59
2021/09/14 08:36:16;;;;;;;4.38;2.88;;;;;;;;;;5070545;28;20062;-60
2021/09/14 08:38:42;;;;;;;3.20;2.53;;;;;;;;;;5073010;28;20028;-60
2021/09/14 08:41:08;;;;;;;3.58;2.90;;;;;;;;;;5072958;28;20020;-60
2021/09/14 08:43:37;;;;;;;3.03;2.55;;;;;;;;;;5070823;28;20036;-60
2021/09/14 08:46:04;;;;;;;4.50;3.77;;;;;;;;;;5072025;28;20073;-60
2021/09/14 08:48:30;;;;;;;5.68;3.75;;;;;;;;;;5070987;28;20496;-59
2021/09/14 08:50:55;;;;;;;5.55;3.70;;;;;;;;;;5072827;28;20087;-59
2021/09/14 08:53:21;;;;;;;3.25;2.78;;;;;;;;;;5071652;28;20059;-59
2021/09/14 08:55:46;;;;;;;3.30;2.67;;;;;;;;;;5072484;28;20025;-60
2021/09/14 08:58:14;;;;;;;3.55;2.95;;;;;;;;;;5066999;28;20087;-59
2021/09/14 09:00:44;;;;;;;3.58;3.13;;;;;;;;;;5068589;28;20710;-59
2021/09/14 09:03:09;;;;;;;3.03;2.55;;;;;;;;;;5085951;28;20238;-59
2021/09/14 09:05:40;;;;;;;3.70;3.15;;;;;;;;;;5070280;28;20127;-59
2021/09/14 09:08:24;;;;;;;3.30;2.80;;;;;;;;;;5071181;28;20035;-59
2021/09/14 09:11:10;;;;;;;4.10;3.17;;;;;;;;;;5070819;28;20038;-59
2021/09/14 09:13:44;;;;;;;3.70;2.78;;;;;;;;;;5066165;28;20095;-60
2021/09/14 09:16:28;;;;;;;3.53;2.80;;;;;;;;;;5067660;28;20423;-59
2021/09/14 09:19:02;;;;;;;4.55;3.55;;;;;;;;;;5069806;28;20044;-59
2021/09/14 09:21:29;;;;;;;4.15;3.28;;;;;;;;;;5066249;28;20032;-59
2021/09/14 09:24:00;;;;;;;3.53;3.03;;;;;;;;;;5067304;28;20473;-59
2021/09/14 09:26:40;;;;;;;3.40;3.03;;;;;;;;;;5069934;28;20123;-59
2021/09/14 09:29:07;;;;;;;3.10;2.73;;;;;;;;;;5069101;28;20032;-59
2021/09/14 09:31:34;;;;;;;4.43;3.45;;;;;;;;;;5069767;28;20029;-59
2021/09/14 09:34:11;;;;;;;3.55;3.25;;;;;;;;;;5068656;28;20103;-59
2021/09/14 09:36:40;;;;;;;3.72;3.38;;;;;;;;;;5069762;28;20183;-59
2021/09/14 09:39:10;;;;;;;4.13;3.47;;;;;;;;;;5070376;28;20056;-59
2021/09/14 09:41:38;;;;;;;4.20;3.80;;;;;;;;;;5068268;28;20035;-59
2021/09/14 09:44:10;;;;;;;3.47;3.17;;;;;;;;;;5068224;28;20082;-59
2021/09/14 09:46:37;;;;;;;3.85;3.45;;;;;;;;;;5070167;28;20032;-59
2021/09/14 09:49:07;;;;;;;3.33;3.03;;;;;;;;;;5070111;28;20218;-59
2021/09/14 09:51:36;;;;;;;;;;;;;;;;;;5070556;28;20457;-59
2021/09/14 09:54:02;;;;;;;3.05;2.63;;;;;;;;;;5068649;28;19942;-59
2021/09/14 09:56:32;;;;;;;4.35;3.90;;;;;;;;;;5066548;28;20366;-59
2021/09/14 09:59:01;;;;;;;5.82;3.75;;;;;;;;;;5069098;28;20040;-59
2021/09/14 10:01:27;;;;;;;4.47;4.07;;;;;;;;;;5068101;28;20104;-59
2021/09/14 10:03:58;;;;;;;3.97;3.58;;;;;;;;;;5064330;28;20568;-59
2021/09/14 10:06:29;;;;;;;4.38;3.97;;;;;;;;;;5066363;28;20354;-59
2021/09/14 10:08:56;;;;;;;4.82;4.18;;;;;;;;;;5067937;28;20111;-59
2021/09/14 10:11:29;;;;;;;4.60;4.20;;;;;;;;;;5068958;28;20124;-59
2021/09/14 10:14:15;;;;;;;4.63;4.22;;;;;;;;;;5067771;28;20081;-59
2021/09/14 10:16:46;;;;;;;5.45;4.75;;;;;;;;;;5066492;28;20580;-59
2021/09/14 10:19:16;;;;;;;;;;;;;;;;;;5069676;28;20044;-59
2021/09/14 10:21:43;;;;;;;4.38;3.47;;;;;;;;;;5068675;28;19912;-59
2021/09/14 10:24:19;;;;;;;3.97;3.63;;;;;;;;;;5069585;28;20051;-59
2021/09/14 10:26:45;;;;;;;4.53;3.45;;;;;;;;;;5068418;28;20099;-59
2021/09/14 10:29:13;;;;;;;5.00;4.60;;;;;;;;;;5069136;28;20478;-59
2021/09/14 10:31:39;;;;;;;5.07;4.68;;;;;;;;;;5068764;28;20036;-61
2021/09/14 10:34:15;;;;;;;5.82;5.32;;;;;;;;;;5070012;28;20659;-60
2021/09/14 10:36:42;;;;;;;7.00;6.50;;;;;;;;;;5070059;28;20215;-60
2021/09/14 10:39:21;;;;;;;6.40;5.90;;;;;;;;;;5069955;28;20048;-60
2021/09/14 10:41:49;;;;;;;8.10;7.40;;;;;;;;;;5070666;28;20377;-60
2021/09/14 10:44:32;;;;;;;6.63;6.13;;;;;;;;;;5066705;28;20515;-60
2021/09/14 10:47:14;;;;;;;6.35;5.85;;;;;;;;;;5069313;28;20033;-61
2021/09/14 10:49:49;;;;;;;5.97;5.53;;;;;;;;;;5070318;28;20039;-60
2021/09/14 10:52:17;;;;;;;7.03;6.45;;;;;;;;;;5068251;28;20040;-62
2021/09/14 10:54:48;;;;;;;7.95;7.35;;;;;;;;;;5067513;28;20029;-61
2021/09/14 10:57:14;;;;;;;7.00;6.40;;;;;;;;;;5082081;28;20474;-61
2021/09/14 10:59:48;;;;;;;8.20;7.60;;;;;;;;;;5069037;28;20046;-61
2021/09/14 11:02:13;;;;;;;8.05;7.45;;;;;;;;;;5069627;28;20032;-60
2021/09/14 11:04:42;;;;;;;7.72;7.13;;;;;;;;;;5064180;28;20051;-62
2021/09/14 11:07:12;;;;;;;7.03;6.53;;;;;;;;;;5067042;28;20040;-61
2021/09/14 11:09:38;;;;;;;7.10;6.60;;;;;;;;;;5067821;28;20492;-60
2021/09/14 11:12:04;;;;;;;6.18;5.68;;;;;;;;;;5069067;28;20401;-60
2021/09/14 11:14:34;;;;;;;9.07;8.38;;;;;;;;;;5068681;28;20032;-60
2021/09/14 11:17:01;;;;;;;10.07;9.40;;;;;;;;;;5066918;28;20039;-60
2021/09/14 11:19:26;;;;;;;7.13;6.53;;;;;;;;;;5065606;28;20612;-60
2021/09/14 11:21:52;;;;;;;5.50;5.07;;;;;;;;;;5066591;28;20051;-59
2021/09/14 11:24:20;;;;;;;7.50;7.00;;;;;;;;;;5066048;28;20183;-59
2021/09/14 11:26:46;;;;;;;8.05;7.45;;;;;;;;;;5064198;28;20124;-61
2021/09/14 11:29:12;;;;;;;6.47;5.97;;;;;;;;;;5058274;28;20063;-60
2021/09/14 11:31:38;;;;;;;9.07;8.38;;;;;;;;;;5065727;28;20040;-60
2021/09/14 11:34:05;;;;;;;9.85;9.25;;;;;;;;;;5066600;28;20037;-59
2021/09/14 11:36:31;;;;;;;8.20;7.60;;;;;;;;;;5066835;28;20064;-60
2021/09/14 11:39:02;;;;;;;9.60;9.00;;;;;;;;;;5067785;28;20140;-59
2021/09/14 11:41:36;;;;;;;7.60;7.00;;;;;;;;;;5068423;28;20081;-59
2021/09/14 11:44:03;;;;;;;7.35;6.75;;;;;;;;;;5066675;28;20103;-59
2021/09/14 11:46:28;;;;;;;9.95;8.90;;;;;;;;;;5063671;28;20035;-60
2021/09/14 11:48:56;;;;;;;7.07;6.57;;;;;;;;;;5067576;28;20036;-59
2021/09/14 11:51:22;;;;;;;8.10;7.50;;;;;;;;;;5062227;28;20067;-60
2021/09/14 11:53:52;;;;;;;6.88;6.38;;;;;;;;;;5068094;28;20021;-60
2021/09/14 11:56:19;;;;;;;7.60;7.10;;;;;;;;;;5065231;28;20087;-60
2021/09/14 11:58:48;;;;;;;7.25;6.75;;;;;;;;;;5065356;28;20039;-60
2021/09/14 12:01:16;;;;;;;5.85;5.35;;;;;;;;;;5064648;28;20045;-60
2021/09/14 12:03:46;;;;;;;7.07;6.57;;;;;;;;;;5065428;28;20601;-60
2021/09/14 12:06:24;;;;;;;6.70;5.90;;;;;;;;;;5063498;28;20028;-60
2021/09/14 12:08:50;;;;;;;9.02;8.07;;;;;;;;;;5064287;28;20028;-60
2021/09/14 12:11:27;;;;;;;7.40;6.80;;;;;;;;;;5081719;28;20173;-59
2021/09/14 12:14:03;;;;;;;7.15;6.22;;;;;;;;;;5064258;28;20085;-60
2021/09/14 12:16:31;;;;;;;6.32;5.82;;;;;;;;;;5065693;28;20153;-60
2021/09/14 12:18:57;;;;;;;6.75;6.20;;;;;;;;;;5065204;28;20032;-60
2021/09/14 12:21:25;;;;;;;6.40;5.90;;;;;;;;;;5065407;28;20075;-60
2021/09/14 12:23:50;;;;;;;5.82;5.32;;;;;;;;;;5065101;28;20048;-60
2021/09/14 12:26:24;;;;;;;6.38;5.88;;;;;;;;;;5066384;28;20520;-60
2021/09/14 12:28:52;;;;;;;5.18;4.78;;;;;;;;;;5066547;28;20416;-60
2021/09/14 12:31:18;;;;;;;5.93;5.43;;;;;;;;;;5064763;28;20087;-60
2021/09/14 12:33:44;;;;;;;4.88;4.47;;;;;;;;;;5066304;28;20056;-60
2021/09/14 12:36:10;;;;;;;5.38;4.88;;;;;;;;;;5067411;28;20087;-60
2021/09/14 12:38:36;;;;;;;5.18;4.78;;;;;;;;;;5068672;28;20426;-59
2021/09/14 12:41:02;;;;;;;5.85;4.63;;;;;;;;;;5067897;28;20085;-59
2021/09/14 12:43:27;;;;;;;5.20;4.70;;;;;;;;;;5062568;28;20028;-59
2021/09/14 12:45:53;;;;;;;5.93;5.43;;;;;;;;;;5063395;28;20032;-59
2021/09/14 12:48:18;;;;;;;6.05;5.55;;;;;;;;;;5066781;28;20045;-59
2021/09/14 12:50:44;;;;;;;5.65;5.15;;;;;;;;;;5064630;28;20047;-60
2021/09/14 12:53:09;;;;;;;5.15;4.65;;;;;;;;;;5065794;28;20108;-59
2021/09/14 12:55:36;;;;;;;4.85;4.45;;;;;;;;;;5062998;28;20029;-59
2021/09/14 12:58:03;;;;;;;4.82;4.43;;;;;;;;;;5068855;28;20136;-59
2021/09/14 13:00:29;;;;;;;3.83;3.47;;;;;;;;;;5069668;28;20040;-59
2021/09/14 13:02:55;;;;;;;4.95;4.55;;;;;;;;;;5072162;28;20032;-59
2021/09/14 13:05:20;;;;;;;4.32;3.92;;;;;;;;;;5069725;28;20040;-59
2021/09/14 13:07:45;;;;;;;5.18;4.63;;;;;;;;;;5071313;28;20024;-60
2021/09/14 13:10:13;;;;;;;3.42;3.10;;;;;;;;;;5070070;28;20037;-59
2021/09/14 13:12:46;;;;;;;4.22;3.72;;;;;;;;;;5069945;28;20060;-60
2021/09/14 13:17:57;;;;;;;2.80;2.10;;;;;;;;;;5072192;28;20506;-60
2021/09/14 13:20:22;;;;;;;5.18;4.78;;;;;;;;;;5067440;28;20032;-59
2021/09/14 13:22:48;;;;;;;3.95;3.03;;;;;;;;;;5065609;28;20089;-60
2021/09/14 13:25:13;;;;;;;5.28;4.78;;;;;;;;;;5069149;28;20385;-59
2021/09/14 13:27:39;;;;;;;8.55;4.22;;;;;;;;;;5063679;28;20099;-59
2021/09/14 13:30:05;;;;;;;3.40;3.10;;;;;;;;;;5064855;28;20066;-59
2021/09/14 13:32:30;;;;;;;3.10;2.53;;;;;;;;;;5068166;28;20036;-60
2021/09/14 13:34:55;;;;;;;4.07;3.10;;;;;;;;;;5068544;28;20539;-59
2021/09/14 13:37:21;;;;;;;3.88;3.47;;;;;;;;;;5069574;28;20028;-59
2021/09/14 13:39:47;;;;;;;3.90;2.67;;;;;;;;;;5068603;28;20040;-60
2021/09/14 13:42:13;;;;;;;3.20;2.83;;;;;;;;;;5071416;28;20064;-59
2021/09/14 13:47:08;;;;;;;4.60;3.42;;;;;;;;;;5071594;28;20036;-59
2021/09/14 13:49:33;;;;;;;3.88;3.47;;;;;;;;;;5070415;28;20041;-58
2021/09/14 13:51:58;;;;;;;3.72;3.33;;;;;;;;;;5071749;28;20032;-59
2021/09/14 13:54:24;;;;;;;3.67;3.10;;;;;;;;;;5071195;28;20036;-59
2021/09/14 13:56:49;;;;;;;3.25;2.67;;;;;;;;;;5068175;28;20044;-59
2021/09/14 13:59:15;;;;;;;3.38;2.80;;;;;;;;;;5069595;28;20078;-59
2021/09/14 14:01:40;;;;;;;4.95;3.25;;;;;;;;;;5071303;28;20532;-59
2021/09/14 14:04:06;;;;;;;3.33;2.88;;;;;;;;;;5071085;28;20481;-59
2021/09/14 14:06:31;;;;;;;3.58;2.50;;;;;;;;;;5070575;28;20502;-59
2021/09/14 14:08:56;;;;;;;2.97;2.38;;;;;;;;;;5061548;28;20043;-59
2021/09/14 14:11:22;;;;;;;2.90;2.30;;;;;;;;;;5071262;28;20036;-59
2021/09/14 14:13:47;;;;;;;3.10;2.15;;;;;;;;;;5064968;28;20038;-59
2021/09/14 14:16:13;;;;;;;3.00;2.60;;;;;;;;;;5070071;28;20120;-59
2021/09/14 14:18:39;;;;;;;2.60;1.90;;;;;;;;;;5069723;28;20488;-59
2021/09/14 14:21:05;;;;;;;2.83;2.30;;;;;;;;;;5070762;28;20036;-58
2021/09/14 14:23:31;;;;;;;3.28;2.33;;;;;;;;;;5063243;28;20577;-59
2021/09/14 14:25:57;;;;;;;2.60;1.92;;;;;;;;;;5069062;28;20036;-58
2021/09/14 14:28:23;;;;;;;2.53;1.95;;;;;;;;;;5068545;28;20039;-59
2021/09/14 14:30:48;;;;;;;2.60;1.92;;;;;;;;;;5071092;28;20028;-59
2021/09/14 14:33:14;;;;;;;3.33;2.38;;;;;;;;;;5069395;28;20047;-59
2021/09/14 14:35:39;;;;;;;2.65;1.90;;;;;;;;;;5069399;28;20078;-59
2021/09/14 14:38:04;;;;;;;3.30;2.47;;;;;;;;;;5068248;28;20568;-59
2021/09/14 14:40:30;;;;;;;3.58;2.53;;;;;;;;;;5067647;28;20042;-58
2021/09/14 14:42:56;;;;;;;3.33;2.63;;;;;;;;;;5069451;28;20438;-59
2021/09/14 14:45:21;;;;;;;4.38;2.42;;;;;;;;;;5069620;28;20035;-59
2021/09/14 14:47:50;;;;;;;2.80;2.03;;;;;;;;;;5069766;28;20030;-59
2021/09/14 14:50:20;;;;;;;2.80;2.20;;;;;;;;;;5070294;28;20036;-59
2021/09/14 14:52:46;;;;;;;3.30;2.42;;;;;;;;;;5069799;28;20455;-60
2021/09/14 14:55:12;;;;;;;7.38;2.40;;;;;;;;;;5069220;28;20037;-60
2021/09/14 14:57:39;;;;;;;2.83;2.42;;;;;;;;;;5066356;28;20067;-61
2021/09/14 15:00:06;;;;;;;4.38;2.00;;;;;;;;;;5069509;28;20120;-60
2021/09/14 15:02:31;;;;;;;2.88;2.38;;;;;;;;;;5068759;28;20361;-60
2021/09/14 15:04:57;;;;;;;2.97;2.50;;;;;;;;;;5069617;28;20029;-60
2021/09/14 15:07:22;;;;;;;2.85;2.40;;;;;;;;;;5069775;28;20055;-60
2021/09/14 15:09:47;;;;;;;4.22;2.78;;;;;;;;;;5070389;28;20024;-60
2021/09/14 15:12:13;;;;;;;4.13;2.50;;;;;;;;;;5069972;28;20047;-60
2021/09/14 15:14:38;;;;;;;3.47;2.60;;;;;;;;;;5067791;28;20075;-60
2021/09/14 15:17:03;;;;;;;3.22;2.58;;;;;;;;;;5069955;28;20438;-60
2021/09/14 15:19:29;;;;;;;4.25;2.67;;;;;;;;;;5069193;28;20047;-59
2021/09/14 15:21:54;;;;;;;3.50;2.20;;;;;;;;;;5069272;28;20165;-60
2021/09/14 15:24:20;;;;;;;2.97;2.25;;;;;;;;;;5069185;28;20134;-60
2021/09/14 15:26:45;;;;;;;3.38;2.42;;;;;;;;;;5067345;28;20107;-61
2021/09/14 15:29:10;;;;;;;3.15;2.60;;;;;;;;;;5068779;28;20135;-60
2021/09/14 15:31:37;;;;;;;3.08;2.63;;;;;;;;;;5068872;28;20068;-60
2021/09/14 15:34:02;;;;;;;2.67;2.00;;;;;;;;;;5068787;28;20133;-60
2021/09/14 15:36:28;;;;;;;2.78;2.15;;;;;;;;;;5068917;28;20530;-58
2021/09/14 15:38:54;;;;;;;3.67;3.38;;;;;;;;;;5069325;28;20036;-60
2021/09/14 15:41:19;;;;;;;3.30;2.38;;;;;;;;;;5067383;28;20044;-59
2021/09/14 15:43:47;;;;;;;3.03;2.35;;;;;;;;;;5068537;28;20085;-59
2021/09/14 15:46:12;;;;;;;3.97;2.15;;;;;;;;;;5069329;28;20048;-59